Terminal Aerodrome Forecast
Issued by NWS Detroit/Pontiac, MI

Home | Current Version | Previous Version | Text Only | Print | Product List | Glossary On
Versions: 1 2 3 4 5 6 7 8 9 10 11 12 13 14 15 16 17 18
053
FTUS43 KDTX 142320
TAFFNT
TAF
KFNT 142320Z 1500/1524 13006KT P6SM SCT080 OVC150
     FM150500 14008KT 5SM -SN SCT028 BKN035 OVC060
      TEMPO 1508/1511 3SM -SN BKN028 OVC035
     FM151100 15009KT 6SM -SN BKN018 OVC045
     FM151600 20009KT P6SM BKN022 OVC045=

USA.gov is the U.S. government's official web portal to all federal, state and local government web resources and services.